LGAVRJAA

Guest
Details From LGAV - Athens Intl Airport Elefterios Venizel
To RJAA - Narita Intl
Flight Number -
Tags Generated
Created
Modified
Stats Distance 5,149 nm / 9,536 km
Max Altitude 0 ft / 0 m
Waypoints 12
Social Downloads 1
Likes 0
Share VATSIM

Download

Looking for another format? Having issues loading an existing format? Contact us
Advertisement - Login to hide

Notes

Generated

Route

LGAV MARMA RN MASUM LUSOV LUGET RATGA KUDIP GEKMA WQG PERCH RJAA

ID Type Via Altitude Latitude Longitude Leg Dist Tot Dist Heading (true) Name
O LGAV APT - 0 ft / 0 m 37.92101˚ 23.91920˚ - 0 nm - -
MARMA FIX - 0 ft / 0 m 40.52717˚ 27.64883˚ 233 nm 233 nm 47° / 49° -
RN NDB - 0 ft / 0 m 47.22500˚ 39.77000˚ 659 nm 893 nm 48° / 57° ROSTOV-NA-DONU NDB
MASUM FIX - 0 ft / 0 m 49.16667˚ 44.66667˚ 228 nm 1121 nm 57° / 61° -
LUSOV FIX - 0 ft / 0 m 54.96667˚ 74.08333˚ 1130 nm 2252 nm 61° / 84° -
LUGET FIX - 0 ft / 0 m 55.06667˚ 79.81667˚ 197 nm 2449 nm 86° / 91° -
RATGA FIX - 0 ft / 0 m 54.81667˚ 86.35000˚ 225 nm 2675 nm 91° / 96° -
KUDIP FIX - 0 ft / 0 m 54.25500˚ 93.28167˚ 243 nm 2919 nm 95° / 101° -
GEKMA FIX - 0 ft / 0 m 52.55333˚ 104.73000˚ 421 nm 3341 nm 99° / 109° -
WQG VOR - 0 ft / 0 m 43.29500˚ 129.78333˚ 1143 nm 4484 nm 109° / 128° WANGQING VOR-DME
PERCH FIX - 0 ft / 0 m 35.89030˚ 140.28634˚ 657 nm 5142 nm 129° / 136° -
O RJAA APT - 0 ft / 0 m 35.80271˚ 140.37991˚ 6 nm 5149 nm 139° / 139° -

Altitude Profile

Advertisement - Login to hide

Weather


0- 5 10 15 20 25 30 35+ Temperature / ° C

Clouds and Precipitation
Forecast for 2017-12-11 18:00 UTC. Updated 2 hours ago

Ground ~20,000 ft ~40,000 ft Winds

LGAV

Details ICAO LGAV (ATH)
Name Athens Intl Airport Elefterios Venizel
Region Greece
Timezone Europe/Athens (UTC+2.0)
Stats Elevation 308 ft / 94 m (AMSL)
Location 37.936357° 23.944470°
Runways 2
Magnetic Variation 4.483° E

METAR

LGAV 111850Z 03003KT 9999 FEW035 08/05 Q1023 NOSIG

Decode

TAF

TAF TAF LGAV 111700Z 1118/1218 23012KT 9999 FEW025 BECMG 1200/1202 VRB03KT BECMG 1208/1210 20012KT

Decode

Departure Runways

ID Width Length Bearing (true) Bearing (mag) Surface Threshold Offset Overrun Length
03L 148 ft / 45 m 12,474 ft / 3,802 m 36.51° 32.03° Asphalt 984 ft / 300 m 393 ft / 120 m
03R 148 ft / 45 m 13,131 ft / 4,002 m 36.52° 32.04° Asphalt 984 ft / 300 m 393 ft / 120 m
21L 148 ft / 45 m 13,131 ft / 4,002 m 216.54° 212.06° Asphalt 984 ft / 300 m 393 ft / 120 m
21R 148 ft / 45 m 12,474 ft / 3,802 m 216.53° 212.05° Asphalt 984 ft / 300 m 393 ft / 120 m

RJAA

Details ICAO RJAA (NRT)
Name NARITA INTL
Region Japan
Timezone Asia/Tokyo (UTC+9.0)
Stats Elevation 141 ft / 43 m (AMSL)
Location 35.776552° 140.382770°
Runways 2
Magnetic Variation 7.405° W

METAR

RJAA 111900Z VRB02KT 9999 FEW030 02/M05 Q1007 NOSIG RMK 1CU030 A2976

Decode

TAF

TAF RJAA 111705Z 1118/1300 25008KT 9999 FEW030= TAF RJBB 111705Z 1118/1300 29022KT 9999 FEW020 BKN035 TEMPO 1118/1200 29024G34KT

Decode

Destination Runways

ID Width Length Bearing (true) Bearing (mag) Surface Threshold Offset Overrun Length
16L 196 ft / 60 m 7,162 ft / 2,183 m 149.61° 157.01° Asphalt 190 ft / 58 m 0 ft / 0 m
16R 196 ft / 60 m 13,142 ft / 4,006 m 149.61° 157.01° Asphalt 0 ft / 0 m 410 ft / 125 m
34L 196 ft / 60 m 13,142 ft / 4,006 m 329.62° 337.02° Asphalt 0 ft / 0 m 415 ft / 126 m
34R 196 ft / 60 m 7,162 ft / 2,183 m 329.62° 337.02° Asphalt 190 ft / 58 m 0 ft / 0 m

Approach Navaids

Runway Type Ident Frequency Range Bearing (true) Bearing (mag) Slope Elevation
16L Localiser ITM 110.70 MHz 18 nm / 33 km 149.62° 157.02° - 141 ft / 43 m (AMSL)
16L Glidescope ITM 110.70 MHz 10 nm / 19 km 149.62° 157.02° 3.00° 141 ft / 43 m (AMSL)
16L DME ITM 110.70 MHz 18 nm / 33 km - - - 145 ft / 44 m (AMSL)
16R Localiser IKF 111.50 MHz 18 nm / 33 km 149.63° 157.03° - 141 ft / 43 m (AMSL)
16R Glidescope IKF 111.50 MHz 10 nm / 19 km 149.62° 157.02° 3.00° 141 ft / 43 m (AMSL)
16R DME IKF 111.50 MHz 18 nm / 33 km - - - 145 ft / 44 m (AMSL)
34L Localiser IYQ 111.90 MHz 18 nm / 33 km 329.61° 337.01° - 141 ft / 43 m (AMSL)
34L Glidescope IYQ 111.90 MHz 10 nm / 19 km 329.62° 337.02° 3.00° 141 ft / 43 m (AMSL)
34L DME IYQ 111.90 MHz 18 nm / 33 km - - - 153 ft / 47 m (AMSL)
34R Localiser ITJ 110.90 MHz 18 nm / 33 km 329.62° 337.02° - 141 ft / 43 m (AMSL)
34R Glidescope ITJ 110.90 MHz 10 nm / 19 km 329.62° 337.02° 3.00° 141 ft / 43 m (AMSL)
34R DME ITJ 110.90 MHz 18 nm / 33 km - - - 148 ft / 45 m (AMSL)

Popular Alternatives